Terminal Aerodrome Forecast
Issued by NWS

Home | Current Version | Previous Version | Graphics & Text | Print | Product List | Glossary On
Versions: 1 2 3 4 5 6 7 8 9 10 11 12 13 14 15 16 17 18 19
000
FTUS43 KBIS 212329
TAFJMS
TAF
KJMS 212329Z 2200/2224 32004KT 6SM BR SCT015 OVC025
     FM220400 29006KT 4SM BR OVC012
     FM221200 29008KT 6SM BR OVC008
     FM222300 29010KT P6SM BKN010=

USA.gov is the U.S. government's official web portal to all federal, state and local government web resources and services.